Time;durP1;ratioP1;P1;durP2;ratioP2;P2;SDS_P1;SDS_P2;PMS_P1;PMS_P2;Temp;Humidity;BMP_temperature;BMP_pressure;BME280_temperature;BME280_humidity;BME280_pressure;Samples;Min_cycle;Max_cycle;Signal;HPM_P1;HPM_P2
2022/09/07 00:00:41;;;;;;;3.10;1.70;;;;;;;11.67;53.46;98722.40;105173;1281;137618;-67
2022/09/07 00:03:11;;;;;;;4.60;1.60;;;;;;;11.63;53.93;98722.39;105348;1281;22531;-68
2022/09/07 00:05:48;;;;;;;3.40;1.80;;;;;;;11.57;53.89;98724.88;105255;1281;22715;-68
2022/09/07 00:08:17;;;;;;;2.70;1.50;;;;;;;11.52;54.19;98722.91;105277;1280;137489;-68
2022/09/07 00:10:59;;;;;;;3.50;1.50;;;;;;;11.48;54.57;98723.98;105436;1280;22667;-68
2022/09/07 00:13:28;;;;;;;4.90;1.40;;;;;;;11.44;54.73;98723.15;105495;1280;137643;-68
2022/09/07 00:15:55;;;;;;;4.80;1.50;;;;;;;11.40;54.61;98724.53;105659;1280;22543;-68
2022/09/07 00:18:23;;;;;;;2.40;1.50;;;;;;;11.35;54.92;98728.83;105376;1280;137844;-68
2022/09/07 00:21:02;;;;;;;3.20;1.60;;;;;;;11.29;54.76;98725.59;105628;1280;22709;-68
2022/09/07 00:23:30;;;;;;;2.60;1.30;;;;;;;11.22;55.30;98722.06;105525;1280;24320;-68
2022/09/07 00:26:10;;;;;;;3.00;1.50;;;;;;;11.16;55.39;98722.16;105371;1281;137480;-68
2022/09/07 00:28:37;;;;;;;2.50;1.40;;;;;;;11.10;55.79;98718.79;106578;1280;22459;-68
2022/09/07 00:31:13;;;;;;;4.20;1.60;;;;;;;11.06;55.56;98718.64;105499;1280;137928;-68
2022/09/07 00:33:41;;;;;;;3.20;1.60;;;;;;;11.00;55.70;98720.76;105374;1280;22675;-68
2022/09/07 00:36:08;;;;;;;2.70;1.60;;;;;;;10.95;55.63;98721.87;105260;1281;137651;-68
2022/09/07 00:38:35;;;;;;;3.60;1.80;;;;;;;10.92;56.36;98720.59;105324;1281;22558;-68
2022/09/07 00:41:02;;;;;;;4.90;1.50;;;;;;;10.85;56.14;98718.88;104160;1281;1598082;-68
2022/09/07 00:43:35;;;;;;;4.10;1.70;;;;;;;10.81;56.34;98714.70;105169;1281;138218;-68
2022/09/07 00:46:03;;;;;;;2.40;1.60;;;;;;;10.76;56.67;98711.94;105362;1281;24254;-68
2022/09/07 00:48:53;;;;;;;3.90;1.90;;;;;;;10.70;56.64;98712.68;105350;1281;137644;-68
2022/09/07 00:51:45;;;;;;;3.50;1.50;;;;;;;10.65;56.61;98713.66;105326;1281;22616;-68
2022/09/07 00:54:19;;;;;;;4.70;1.80;;;;;;;10.60;56.97;98712.89;105395;1281;138228;-68
2022/09/07 00:56:48;;;;;;;5.30;2.10;;;;;;;10.55;57.03;98712.61;105331;1283;25357;-68
2022/09/07 00:59:21;;;;;;;3.50;1.40;;;;;;;10.51;57.27;98710.84;105360;1283;22645;-68
2022/09/07 01:01:50;;;;;;;5.30;1.70;;;;;;;10.46;57.32;98709.75;106178;1283;137515;-68
2022/09/07 01:04:18;;;;;;;4.00;2.00;;;;;;;10.43;57.79;98708.89;105306;1283;22550;-68
2022/09/07 01:06:45;;;;;;;2.70;1.40;;;;;;;10.39;57.77;98706.82;105194;1283;137427;-68
2022/09/07 01:09:15;;;;;;;4.90;2.10;;;;;;;10.34;57.87;98705.35;105311;1280;24230;-68
2022/09/07 01:11:49;;;;;;;5.00;1.90;;;;;;;10.30;57.95;98703.20;105350;1283;25515;-68
2022/09/07 01:14:21;;;;;;;4.40;1.80;;;;;;;10.24;58.02;98703.88;105351;1280;137420;-68
2022/09/07 01:17:06;;;;;;;4.60;2.00;;;;;;;10.20;58.05;98702.98;105366;1280;22752;-68
2022/09/07 01:19:55;;;;;;;5.30;1.50;;;;;;;10.18;58.52;98703.95;105255;1280;137701;-68
2022/09/07 01:22:54;;;;;;;5.00;2.10;;;;;;;10.16;58.53;98701.30;105351;1281;24501;-68
2022/09/07 01:25:40;;;;;;;;;;;;;;;10.14;58.57;98704.85;105266;1281;137488;-68
2022/09/07 01:28:27;;;;;;;1.90;1.40;;;;;;;10.12;58.68;98702.84;105563;1280;30378;-68
2022/09/07 01:31:28;;;;;;;3.70;1.70;;;;;;;10.12;58.70;98703.16;105293;1280;137441;-68
2022/09/07 01:34:17;;;;;;;3.40;1.70;;;;;;;10.12;58.85;98698.27;105401;1280;25251;-68
2022/09/07 01:37:11;;;;;;;2.40;1.70;;;;;;;10.13;59.11;98690.55;105268;1280;137675;-68
2022/09/07 01:39:50;;;;;;;5.10;2.00;;;;;;;10.14;58.99;98689.27;105348;1281;22540;-68
2022/09/07 01:42:22;;;;;;;3.00;1.80;;;;;;;10.15;58.97;98688.98;105268;1281;137718;-68
2022/09/07 01:45:01;;;;;;;5.00;2.40;;;;;;;10.15;59.05;98691.83;105329;1280;22554;-68
2022/09/07 01:47:33;;;;;;;3.90;1.90;;;;;;;10.15;59.13;98685.23;105398;1281;24268;-68
2022/09/07 01:50:09;;;;;;;3.10;1.80;;;;;;;10.16;59.02;98676.80;105288;1281;137430;-68
2022/09/07 01:52:59;;;;;;;4.40;2.10;;;;;;;10.16;59.05;98675.95;105389;1281;25255;-68
2022/09/07 01:55:30;;;;;;;4.40;1.80;;;;;;;10.16;58.92;98678.18;105217;1281;137519;-68
2022/09/07 01:58:05;;;;;;;4.00;2.30;;;;;;;10.15;58.90;98677.71;105351;1281;24231;-68
2022/09/07 02:00:34;;;;;;;4.60;2.00;;;;;;;10.13;58.92;98674.84;105274;1281;137634;-68
2022/09/07 02:03:15;;;;;;;3.00;1.60;;;;;;;10.13;58.94;98673.85;105359;1281;24398;-68
2022/09/07 02:05:49;;;;;;;4.20;1.70;;;;;;;10.10;58.90;98676.88;105335;1281;25363;-68
2022/09/07 02:08:26;;;;;;;6.40;2.10;;;;;;;10.07;59.16;98678.09;105173;1281;137940;-68
2022/09/07 02:11:05;;;;;;;3.20;1.60;;;;;;;10.05;59.43;98678.13;105362;1281;24319;-68
2022/09/07 02:13:44;;;;;;;4.10;1.70;;;;;;;10.02;59.37;98677.52;105368;1283;137680;-68
2022/09/07 02:16:25;;;;;;;7.10;2.10;;;;;;;9.99;59.38;98679.08;105331;1281;25083;-68
2022/09/07 02:19:15;;;;;;;4.80;2.00;;;;;;;9.94;59.62;98677.71;105165;1283;137680;-68
2022/09/07 02:21:51;;;;;;;3.50;2.10;;;;;;;9.89;59.80;98671.45;105343;1283;22583;-68
2022/09/07 02:24:24;;;;;;;3.60;2.30;;;;;;;9.84;60.07;98670.35;105215;1283;138756;-68
2022/09/07 02:26:53;;;;;;;5.20;2.30;;;;;;;9.80;60.35;98671.30;105323;1283;26495;-68
2022/09/07 02:29:20;;;;;;;3.70;2.20;;;;;;;9.77;60.56;98669.15;105543;1283;30020;-68
2022/09/07 02:31:49;;;;;;;3.40;1.90;;;;;;;9.72;60.79;98667.50;105211;1281;137330;-68
2022/09/07 02:34:17;;;;;;;;;;;;;;;9.68;60.80;98667.63;105382;1283;23917;-68
2022/09/07 02:36:47;;;;;;;5.90;2.10;;;;;;;9.62;60.86;98666.75;105204;1283;123896;-68
2022/09/07 02:39:14;;;;;;;3.90;2.10;;;;;;;9.54;60.88;98668.59;105339;1281;22602;-68
2022/09/07 02:41:43;;;;;;;5.00;2.30;;;;;;;9.47;60.70;98666.98;105336;1281;22560;-68
2022/09/07 02:44:16;;;;;;;5.50;2.70;;;;;;;9.42;60.74;98661.15;105231;1281;137359;-68
2022/09/07 02:46:55;;;;;;;5.30;2.30;;;;;;;9.41;61.15;98661.94;105561;1281;22651;-68
2022/09/07 02:49:37;;;;;;;4.30;2.40;;;;;;;9.39;61.48;98661.55;105197;1283;137907;-68
2022/09/07 02:52:23;;;;;;;3.40;2.00;;;;;;;9.36;61.53;98656.70;105290;1283;25401;-68
2022/09/07 02:55:19;;;;;;;5.40;2.00;;;;;;;9.31;61.73;98656.47;105205;1283;137325;-68
2022/09/07 02:57:59;;;;;;;3.90;2.40;;;;;;;9.23;62.18;98651.70;105313;1281;22558;-68
2022/09/07 03:00:32;;;;;;;8.40;2.70;;;;;;;9.15;62.15;98652.74;105764;1281;137382;-69
2022/09/07 03:03:17;;;;;;;5.80;2.20;;;;;;;9.08;62.25;98654.83;106064;1280;24836;-68
2022/09/07 03:06:07;;;;;;;4.80;2.10;;;;;;;9.03;61.97;98657.67;105287;1283;22539;-68
2022/09/07 03:08:39;;;;;;;6.10;2.60;;;;;;;8.96;62.75;98662.82;104335;1289;25378;-68
2022/09/07 03:11:06;;;;;;;8.20;2.90;;;;;;;8.92;62.88;98666.34;104424;1288;24335;-68
2022/09/07 03:13:33;;;;;;;7.10;2.60;;;;;;;8.89;62.93;98666.80;104330;1287;137719;-68
2022/09/07 03:16:01;;;;;;;5.90;2.40;;;;;;;8.85;63.26;98661.98;104422;1288;25472;-68
2022/09/07 03:18:28;;;;;;;6.70;2.70;;;;;;;8.84;63.37;98664.70;104350;1288;137886;-68
2022/09/07 03:20:55;;;;;;;9.20;2.70;;;;;;;8.83;63.28;98661.95;104625;1289;24565;-68
2022/09/07 03:23:22;;;;;;;5.80;2.50;;;;;;;8.83;63.17;98659.69;104628;1289;22578;-68
2022/09/07 03:25:49;;;;;;;5.40;2.40;;;;;;;8.84;63.49;98661.55;104630;1287;137463;-68
2022/09/07 03:28:16;;;;;;;5.90;2.30;;;;;;;8.83;63.54;98664.36;104684;1287;22566;-69
2022/09/07 03:30:45;;;;;;;6.70;2.50;;;;;;;8.81;63.38;98671.73;104438;1287;137921;-68
2022/09/07 03:33:16;;;;;;;5.10;2.70;;;;;;;8.79;63.54;98669.02;104615;1288;25421;-68
2022/09/07 03:35:44;;;;;;;6.90;3.10;;;;;;;8.77;63.80;98666.62;104395;1288;22544;-68
2022/09/07 03:38:11;;;;;;;5.90;2.40;;;;;;;8.76;63.90;98661.20;104443;1288;137448;-68
2022/09/07 03:40:38;;;;;;;6.40;2.80;;;;;;;8.72;63.50;98658.03;104689;1287;25311;-68
2022/09/07 03:43:06;;;;;;;5.70;3.30;;;;;;;8.71;63.66;98659.17;104703;1287;137687;-68
2022/09/07 03:45:34;;;;;;;9.40;3.70;;;;;;;8.69;64.44;98663.23;104915;1280;24287;-68
2022/09/07 03:48:01;;;;;;;6.50;3.20;;;;;;;8.66;64.49;98662.41;105318;1280;137625;-68
2022/09/07 03:50:28;;;;;;;7.60;2.70;;;;;;;8.64;64.46;98664.73;105363;1280;22532;-68
2022/09/07 03:52:55;;;;;;;7.60;3.60;;;;;;;8.64;64.76;98660.18;105323;1281;25249;-68
2022/09/07 03:55:21;;;;;;;8.90;3.30;;;;;;;8.63;64.46;98658.40;105255;1281;138006;-68
2022/09/07 03:57:48;;;;;;;6.20;3.10;;;;;;;8.62;64.62;98654.95;105336;1281;22748;-68
2022/09/07 04:00:15;;;;;;;8.10;3.20;;;;;;;8.62;65.01;98656.95;105265;1280;137431;-68
2022/09/07 04:02:42;;;;;;;5.80;3.10;;;;;;;8.62;65.07;98654.14;105374;1280;22628;-68
2022/09/07 04:05:10;;;;;;;7.00;2.70;;;;;;;8.65;65.18;98661.77;105391;1280;24476;-68
2022/09/07 04:07:37;;;;;;;6.40;2.90;;;;;;;8.67;65.11;98656.52;105260;1280;137257;-68
2022/09/07 04:10:04;;;;;;;5.10;3.00;;;;;;;8.68;65.13;98658.34;105290;1283;24467;-68
2022/09/07 04:12:31;;;;;;;8.10;2.90;;;;;;;8.68;65.08;98654.20;105250;1281;137469;-68
2022/09/07 04:14:58;;;;;;;8.00;3.20;;;;;;;8.68;65.43;98659.46;105359;1281;22655;-68
2022/09/07 04:17:24;;;;;;;8.80;3.10;;;;;;;8.69;65.10;98657.66;105358;1281;22732;-68
2022/09/07 04:19:51;;;;;;;5.20;2.60;;;;;;;8.69;65.07;98660.88;105230;1281;137299;-68
2022/09/07 04:22:18;;;;;;;5.80;2.90;;;;;;;8.68;65.08;98665.60;105352;1281;24921;-68
2022/09/07 04:24:45;;;;;;;6.30;3.00;;;;;;;8.67;64.77;98662.86;105225;1281;137896;-68
2022/09/07 04:27:12;;;;;;;4.30;2.80;;;;;;;8.67;65.06;98665.52;105254;1283;22560;-68
2022/09/07 04:29:38;;;;;;;7.30;2.70;;;;;;;8.66;65.27;98673.48;105358;1281;22544;-68
2022/09/07 04:32:05;;;;;;;8.90;3.40;;;;;;;8.64;65.04;98673.21;105229;1281;137164;-68
2022/09/07 04:34:32;;;;;;;8.20;2.90;;;;;;;8.64;65.49;98674.84;105358;1281;25365;-68
2022/09/07 04:36:59;;;;;;;9.70;3.40;;;;;;;8.65;65.77;98671.77;105249;1281;137697;-68
2022/09/07 04:39:26;;;;;;;7.30;3.40;;;;;;;8.65;65.67;98670.31;105329;1281;22594;-68
2022/09/07 04:41:53;;;;;;;7.10;3.00;;;;;;;8.66;64.98;98685.27;105340;1283;23083;-68
2022/09/07 04:44:20;;;;;;;9.20;3.10;;;;;;;8.68;65.16;98694.88;105266;1281;137420;-68
2022/09/07 04:46:47;;;;;;;8.70;3.20;;;;;;;8.73;65.06;98696.12;105359;1281;22563;-68
2022/09/07 04:49:14;;;;;;;6.20;3.20;;;;;;;8.78;65.37;98688.70;105275;1281;137369;-68
2022/09/07 04:51:43;;;;;;;10.00;3.40;;;;;;;8.83;65.32;98682.59;105298;1283;25116;-68
2022/09/07 04:54:10;;;;;;;8.90;3.00;;;;;;;8.86;65.22;98685.64;105196;1281;137772;-68
2022/09/07 04:56:38;;;;;;;6.90;3.10;;;;;;;8.89;65.39;98683.98;105397;1281;25286;-68
2022/09/07 04:59:05;;;;;;;8.30;3.40;;;;;;;8.90;65.43;98679.81;105334;1280;25599;-68
2022/09/07 05:01:31;;;;;;;8.60;3.30;;;;;;;8.92;65.44;98673.95;105293;1280;138198;-68
2022/09/07 05:04:00;;;;;;;7.50;3.10;;;;;;;8.94;65.36;98676.34;105331;1281;23074;-68
2022/09/07 05:06:27;;;;;;;7.40;3.50;;;;;;;8.95;65.02;98678.21;105236;1281;138206;-68
2022/09/07 05:08:54;;;;;;;7.60;2.90;;;;;;;8.93;65.12;98675.93;105384;1281;25413;-68
2022/09/07 05:11:27;;;;;;;12.90;3.40;;;;;;;8.94;65.26;98671.00;105571;1281;22668;-68
2022/09/07 05:13:58;;;;;;;11.10;3.90;;;;;;;8.96;65.16;98667.97;105201;1280;137591;-68
2022/09/07 05:16:26;;;;;;;5.80;2.90;;;;;;;8.98;65.13;98666.39;105365;1281;24071;-68
2022/09/07 05:18:56;;;;;;;9.30;3.20;;;;;;;9.00;64.88;98670.75;105563;1280;137689;-68
2022/09/07 05:21:27;;;;;;;6.30;3.40;;;;;;;9.02;65.06;98672.90;105400;1281;24316;-67
2022/09/07 05:23:56;;;;;;;6.50;3.50;;;;;;;9.04;65.21;98673.73;105390;1281;25264;-68
2022/09/07 05:26:24;;;;;;;10.40;3.10;;;;;;;9.09;65.32;98673.43;105399;1280;137731;-68
2022/09/07 05:28:51;;;;;;;7.60;3.20;;;;;;;9.15;65.32;98669.95;105300;1280;24333;-68
2022/09/07 05:31:21;;;;;;;9.50;3.20;;;;;;;9.22;65.39;98666.98;105375;1280;137444;-68
2022/09/07 05:33:51;;;;;;;10.00;3.40;;;;;;;9.28;65.19;98666.81;105700;1280;22543;-68
2022/09/07 05:36:19;;;;;;;;;;;;;;;9.34;65.08;98668.98;105273;1280;137869;-68
2022/09/07 05:38:46;;;;;;;8.10;3.40;;;;;;;9.39;65.19;98667.27;105524;1280;24226;-68
2022/09/07 05:41:16;;;;;;;6.30;3.40;;;;;;;9.45;65.32;98667.31;106164;1280;25258;-68
2022/09/07 05:43:43;;;;;;;;;;;;;;;9.50;64.78;98676.48;105757;1280;137695;-68
2022/09/07 05:46:11;;;;;;;7.90;3.10;;;;;;;9.55;64.79;98677.83;105583;1280;22714;-68
2022/09/07 05:48:39;;;;;;;8.50;3.80;;;;;;;9.59;64.71;98672.08;105561;1280;137579;-68
2022/09/07 05:51:07;;;;;;;6.70;3.90;;;;;;;9.63;64.72;98675.89;105390;1280;22547;-69
2022/09/07 05:53:35;;;;;;;9.80;3.60;;;;;;;9.68;64.84;98673.88;105282;1283;30680;-67
2022/09/07 05:56:04;;;;;;;11.60;4.60;;;;;;;9.74;64.86;98675.76;105346;1280;137830;-68
2022/09/07 05:58:32;;;;;;;6.80;3.80;;;;;;;9.80;65.16;98675.16;105293;1283;22550;-68
2022/09/07 06:01:05;;;;;;;9.20;3.80;;;;;;;9.87;65.23;98678.81;105400;1280;137479;-68
2022/09/07 06:03:34;;;;;;;9.30;3.60;;;;;;;9.95;65.17;98680.40;105366;1281;22851;-68
2022/09/07 06:06:06;;;;;;;8.80;3.50;;;;;;;10.01;64.96;98680.45;105607;1280;137527;-68
2022/09/07 06:08:35;;;;;;;7.70;4.00;;;;;;;10.06;64.65;98679.10;105663;1280;22803;-68
2022/09/07 06:11:10;;;;;;;8.70;4.30;;;;;;;10.13;64.65;98675.98;105542;1281;24066;-68
2022/09/07 06:13:38;;;;;;;7.70;3.90;;;;;;;10.19;65.02;98675.15;105354;1280;137727;-68
2022/09/07 06:16:07;;;;;;;7.70;4.00;;;;;;;10.26;65.19;98679.05;105432;1280;25254;-68
2022/09/07 06:18:37;;;;;;;10.60;4.10;;;;;;;10.34;65.12;98679.52;105363;1280;138558;-68
2022/09/07 06:21:08;;;;;;;17.80;4.40;;;;;;;10.44;64.62;98678.88;105512;1280;22617;-68
2022/09/07 06:23:38;;;;;;;8.60;4.50;;;;;;;10.54;64.61;98682.63;105402;1280;22746;-68
2022/09/07 06:26:06;;;;;;;9.50;4.30;;;;;;;10.64;64.34;98686.98;105699;1280;138220;-68
2022/09/07 06:28:39;;;;;;;10.20;4.60;;;;;;;10.72;63.78;98683.62;105514;1280;22553;-68
2022/09/07 06:31:08;;;;;;;11.40;4.80;;;;;;;10.81;64.16;98685.98;105469;1280;137848;-68
2022/09/07 06:33:36;;;;;;;9.40;4.40;;;;;;;10.90;63.44;98681.38;105834;1280;25301;-69
2022/09/07 06:36:06;;;;;;;8.80;4.40;;;;;;;10.99;63.91;98681.29;105846;1280;137829;-68
2022/09/07 06:38:36;;;;;;;6.20;3.80;;;;;;;11.09;63.98;98672.16;106078;1280;22716;-69
2022/09/07 06:41:19;;;;;;;7.90;4.10;;;;;;;11.17;63.68;98673.73;105650;1281;25480;-68
2022/09/07 06:43:51;;;;;;;10.00;4.30;;;;;;;11.25;63.36;98670.77;105363;1280;138023;-69
2022/09/07 06:46:29;;;;;;;8.50;4.20;;;;;;;11.32;63.45;98667.14;105440;1280;22560;-69
2022/09/07 06:49:03;;;;;;;9.60;4.50;;;;;;;11.41;63.53;98671.60;105284;1280;137688;-69
2022/09/07 06:51:31;;;;;;;10.80;4.40;;;;;;;11.48;63.19;98672.59;105510;1280;25349;-69
2022/09/07 06:54:00;;;;;;;9.80;4.40;;;;;;;11.54;63.35;98671.09;105424;1280;25258;-69
2022/09/07 06:56:28;;;;;;;9.00;4.90;;;;;;;11.63;62.94;98671.17;105818;1280;24273;-69
2022/09/07 06:58:57;;;;;;;11.60;4.90;;;;;;;11.72;63.00;98675.58;105709;1280;22553;-69
2022/09/07 07:01:24;;;;;;;12.60;5.10;;;;;;;11.80;62.58;98677.73;107291;1280;137840;-67
2022/09/07 07:03:53;;;;;;;14.50;5.10;;;;;;;11.88;62.18;98674.31;105246;1280;23955;-69
2022/09/07 07:06:20;;;;;;;13.50;4.80;;;;;;;11.96;62.30;98668.25;105710;1280;137986;-69
2022/09/07 07:08:52;;;;;;;10.30;4.20;;;;;;;12.04;61.85;98672.90;105544;1280;23272;-70
2022/09/07 07:11:19;;;;;;;10.90;5.00;;;;;;;12.10;61.34;98673.94;105396;1280;22532;-69
2022/09/07 07:13:46;;;;;;;8.80;4.70;;;;;;;12.16;61.62;98673.75;105248;1281;138311;-69
2022/09/07 07:16:15;;;;;;;9.60;4.60;;;;;;;12.22;61.59;98667.66;105257;1281;25380;-69
2022/09/07 07:18:43;;;;;;;10.80;4.90;;;;;;;12.32;61.52;98664.09;105415;1280;137825;-69
2022/09/07 07:21:12;;;;;;;10.30;4.60;;;;;;;12.42;61.93;98660.72;105333;1281;25431;-69
2022/09/07 07:23:40;;;;;;;7.00;4.20;;;;;;;12.53;62.29;98657.23;105613;1280;22534;-69
2022/09/07 07:26:13;;;;;;;8.50;4.10;;;;;;;12.64;62.35;98657.96;105552;1281;138116;-69
2022/09/07 07:28:46;;;;;;;10.40;4.10;;;;;;;12.75;61.99;98650.00;106263;1280;22556;-68
2022/09/07 07:31:15;;;;;;;8.80;4.90;;;;;;;12.85;61.89;98648.01;105895;1280;137762;-68
2022/09/07 07:33:42;;;;;;;11.10;5.20;;;;;;;12.96;61.35;98651.79;105482;1282;24208;-68
2022/09/07 07:36:21;;;;;;;11.70;5.00;;;;;;;13.06;61.18;98655.40;105313;1280;138000;-69
2022/09/07 07:38:50;;;;;;;8.50;4.80;;;;;;;13.17;61.32;98657.33;105285;1283;22548;-69
2022/09/07 07:41:20;;;;;;;10.40;5.00;;;;;;;13.28;60.93;98655.70;105359;1283;22557;-69
2022/09/07 07:43:51;;;;;;;12.80;5.90;;;;;;;13.39;60.96;98651.02;105203;1283;137973;-68
2022/09/07 07:46:18;;;;;;;13.70;6.10;;;;;;;13.51;60.71;98649.05;105208;1281;24366;-68
2022/09/07 07:48:48;;;;;;;13.30;5.30;;;;;;;13.63;60.84;98650.58;105260;1281;137993;-69
2022/09/07 07:51:15;;;;;;;10.60;5.70;;;;;;;13.75;60.46;98650.20;105275;1281;22550;-69
2022/09/07 07:53:42;;;;;;;10.90;5.40;;;;;;;13.86;60.27;98647.38;105513;1281;22540;-69
2022/09/07 07:56:10;;;;;;;12.60;5.80;;;;;;;13.98;60.24;98645.77;105281;1281;138175;-68
2022/09/07 07:58:38;;;;;;;13.60;5.90;;;;;;;14.11;60.26;98648.45;105416;1280;22549;-68
2022/09/07 08:01:16;;;;;;;9.80;5.30;;;;;;;14.24;60.06;98645.85;105496;1281;137851;-69
2022/09/07 08:03:45;;;;;;;15.60;5.60;;;;;;;14.38;60.25;98650.02;106105;1281;22534;-67
2022/09/07 08:06:15;;;;;;;15.00;5.40;;;;;;;14.49;59.79;98646.05;105194;1281;137996;-66
2022/09/07 08:08:43;;;;;;;13.40;5.30;;;;;;;14.64;59.66;98642.31;105430;1280;25238;-68
2022/09/07 08:11:13;;;;;;;12.10;5.70;;;;;;;14.76;59.12;98644.67;105499;1280;25309;-67
2022/09/07 08:13:42;;;;;;;12.20;5.50;;;;;;;14.90;58.79;98645.16;105308;1280;137875;-69
2022/09/07 08:16:09;;;;;;;12.60;5.30;;;;;;;15.01;58.25;98644.48;106044;1281;22755;-67
2022/09/07 08:18:38;;;;;;;11.70;5.50;;;;;;;15.11;58.66;98645.01;105663;1280;138447;-67
2022/09/07 08:21:09;;;;;;;8.00;4.90;;;;;;;15.24;58.42;98646.25;105595;1280;24238;-67
2022/09/07 08:23:37;;;;;;;12.70;5.60;;;;;;;15.38;57.97;98647.81;105610;1281;26515;-67
2022/09/07 08:26:05;;;;;;;7.90;4.70;;;;;;;15.51;57.57;98642.55;105483;1281;138260;-67
2022/09/07 08:28:36;;;;;;;8.90;4.20;;;;;;;15.65;57.15;98646.70;105475;1280;25389;-67
2022/09/07 08:31:08;;;;;;;9.10;4.60;;;;;;;15.80;57.12;98642.23;105213;1281;138028;-67
2022/09/07 08:33:37;;;;;;;8.80;4.60;;;;;;;15.96;56.81;98644.46;105269;1281;22556;-67
2022/09/07 08:36:07;;;;;;;8.20;5.00;;;;;;;16.10;56.72;98635.77;105155;1281;137823;-67
2022/09/07 08:38:35;;;;;;;9.60;4.90;;;;;;;16.23;56.35;98631.91;105314;1281;22608;-67
2022/09/07 08:41:21;;;;;;;8.70;4.80;;;;;;;16.35;55.66;98627.88;105655;1280;22698;-67
2022/09/07 08:44:00;;;;;;;10.30;4.90;;;;;;;16.50;56.35;98625.79;105529;1281;137682;-67
2022/09/07 08:46:42;;;;;;;7.90;4.40;;;;;;;16.66;56.22;98624.63;105697;1281;23643;-67
2022/09/07 08:49:22;;;;;;;8.70;4.60;;;;;;;16.83;55.54;98616.71;105383;1281;137768;-67
2022/09/07 08:52:02;;;;;;;13.10;5.40;;;;;;;16.99;55.08;98610.92;105268;1280;24205;-66
2022/09/07 08:54:29;;;;;;;11.10;4.90;;;;;;;17.16;54.93;98606.27;105300;1281;138059;-67
2022/09/07 08:57:01;;;;;;;13.50;5.10;;;;;;;17.31;54.48;98605.13;105449;1280;23419;-67
2022/09/07 08:59:47;;;;;;;9.70;5.10;;;;;;;17.45;54.00;98605.02;105485;1281;22550;-67
2022/09/07 09:02:17;;;;;;;9.50;5.30;;;;;;;17.59;53.78;98608.72;106296;1281;137673;-69
2022/09/07 09:04:44;;;;;;;10.70;4.90;;;;;;;17.74;53.70;98602.59;106367;1281;22566;-68
2022/09/07 09:07:52;;;;;;;11.40;5.10;;;;;;;17.88;53.31;98601.45;106026;1281;137829;-67
2022/09/07 09:10:26;;;;;;;8.40;4.60;;;;;;;18.04;52.07;98602.08;104754;1288;23051;-67
2022/09/07 09:13:08;;;;;;;8.50;4.50;;;;;;;18.16;52.85;98597.70;104594;1287;137747;-67
2022/09/07 09:16:02;;;;;;;10.70;4.50;;;;;;;18.32;52.61;98601.34;104597;1288;25486;-67
2022/09/07 09:18:44;;;;;;;9.70;4.70;;;;;;;18.48;51.89;98599.46;104459;1287;138360;-67
2022/09/07 09:21:14;;;;;;;8.10;4.40;;;;;;;18.62;51.62;98593.55;104435;1287;24211;-67
2022/09/07 09:23:44;;;;;;;8.40;3.90;;;;;;;18.75;51.38;98593.10;104509;1289;22637;-67
2022/09/07 09:26:17;;;;;;;10.40;4.60;;;;;;;18.89;51.15;98595.83;104423;1289;137502;-67
2022/09/07 09:28:43;;;;;;;11.50;4.50;;;;;;;19.00;50.98;98597.56;104515;1289;23982;-67
2022/09/07 09:31:23;;;;;;;7.90;4.50;;;;;;;19.13;50.58;98596.94;104426;1289;138116;-67
2022/09/07 09:34:03;;;;;;;8.70;4.10;;;;;;;19.28;49.78;98595.34;104359;1289;22692;-66
2022/09/07 09:36:39;;;;;;;8.10;4.10;;;;;;;19.39;49.32;98591.37;104357;1289;138528;-68
2022/09/07 09:39:26;;;;;;;8.60;3.60;;;;;;;19.49;48.88;98593.73;104593;1289;25986;-68
2022/09/07 09:41:57;;;;;;;7.20;3.40;;;;;;;19.64;48.70;98597.00;104630;1289;23421;-68
2022/09/07 09:44:30;;;;;;;7.80;4.30;;;;;;;19.74;47.79;98594.25;104501;1289;137690;-67
2022/09/07 09:46:57;;;;;;;5.40;3.50;;;;;;;19.85;47.56;98593.50;104977;1281;22553;-67
2022/09/07 09:49:30;;;;;;;9.70;3.80;;;;;;;19.95;47.44;98591.30;105119;1281;137819;-66
2022/09/07 09:51:59;;;;;;;8.50;3.70;;;;;;;20.06;47.35;98594.58;105670;1281;22583;-67
2022/09/07 09:54:40;;;;;;;;;;;;;;;20.16;46.61;98593.73;105567;1281;138187;-67
2022/09/07 09:58:00;;;;;;;6.50;3.70;;;;;;;20.24;46.52;98588.39;105703;1281;25251;-67
2022/09/07 10:00:30;;;;;;;9.10;3.30;;;;;;;20.37;45.66;98585.78;105060;1281;137908;-67
2022/09/07 10:03:10;;;;;;;5.10;3.60;;;;;;;20.48;45.92;98580.08;105604;1281;25359;-67
2022/09/07 10:05:42;;;;;;;5.80;3.10;;;;;;;20.59;45.62;98572.89;105214;1281;25370;-66
2022/09/07 10:08:25;;;;;;;5.60;3.30;;;;;;;20.72;45.71;98565.90;105115;1281;137942;-66
2022/09/07 10:11:01;;;;;;;5.60;3.00;;;;;;;20.87;45.10;98567.94;105451;1281;22535;-67
2022/09/07 10:13:42;;;;;;;6.80;3.20;;;;;;;21.01;43.96;98562.49;105519;1281;137679;-67
2022/09/07 10:16:10;;;;;;;5.70;3.20;;;;;;;21.09;43.47;98559.86;105423;1281;24380;-67
2022/09/07 10:18:57;;;;;;;9.90;3.60;;;;;;;21.15;43.12;98558.36;105653;1281;137871;-67
2022/09/07 10:21:28;;;;;;;5.70;3.80;;;;;;;21.21;43.90;98558.23;105655;1281;25371;-67
2022/09/07 10:24:12;;;;;;;8.20;3.60;;;;;;;21.28;43.37;98557.20;105599;1281;25249;-67
2022/09/07 10:26:43;;;;;;;6.80;3.30;;;;;;;21.44;43.73;98563.17;105379;1281;25276;-67
2022/09/07 10:29:22;;;;;;;6.90;3.50;;;;;;;21.59;42.91;98556.55;105885;1281;25599;-67
2022/09/07 10:32:20;;;;;;;6.50;3.90;;;;;;;21.67;42.77;98552.20;105443;1280;137667;-67
2022/09/07 10:35:20;;;;;;;7.70;3.40;;;;;;;21.76;42.46;98552.75;105429;1280;24243;-67
2022/09/07 10:37:55;;;;;;;8.20;3.30;;;;;;;21.85;42.05;98548.03;105629;1281;137802;-67
2022/09/07 10:40:23;;;;;;;5.80;3.20;;;;;;;21.96;42.32;98548.08;105516;1281;24418;-67
2022/09/07 10:43:08;;;;;;;8.40;3.20;;;;;;;22.10;42.33;98548.17;105458;1281;137652;-67
2022/09/07 10:45:44;;;;;;;7.20;3.30;;;;;;;22.23;41.56;98543.02;105564;1281;22576;-67
2022/09/07 10:48:35;;;;;;;7.10;3.20;;;;;;;22.31;41.18;98547.64;105631;1281;137807;-68
2022/09/07 10:51:07;;;;;;;5.90;2.80;;;;;;;22.40;41.01;98539.77;105908;1281;22872;-67
2022/09/07 10:53:34;;;;;;;6.60;2.90;;;;;;;22.50;40.97;98539.94;105694;1280;22842;-67
2022/09/07 10:56:10;;;;;;;4.90;2.50;;;;;;;22.60;40.68;98543.91;105625;1281;138094;-68
2022/09/07 10:59:05;;;;;;;7.00;2.80;;;;;;;22.71;40.47;98540.88;105790;1280;22541;-67
2022/09/07 11:01:44;;;;;;;7.90;2.70;;;;;;;22.83;40.30;98539.13;105445;1281;137784;-66
2022/09/07 11:04:25;;;;;;;;;;;;;;;22.93;40.04;98538.54;105582;1281;24211;-66
2022/09/07 11:07:19;;;;;;;6.90;2.90;;;;;;;23.00;40.28;98537.52;105195;1281;124647;-66
2022/09/07 11:09:54;;;;;;;5.70;3.20;;;;;;;23.14;39.95;98538.14;104791;1290;29246;-66
2022/09/07 11:12:29;;;;;;;4.50;2.80;;;;;;;23.31;40.09;98541.74;105080;1289;137891;-66
2022/09/07 11:15:13;;;;;;;5.70;2.70;;;;;;;23.43;39.61;98533.06;104525;1290;22577;-66
2022/09/07 11:18:02;;;;;;;5.10;3.30;;;;;;;23.55;39.42;98536.61;104853;1290;23371;-66
2022/09/07 11:20:29;;;;;;;;;;;;;;;23.66;39.20;98530.85;104794;1289;30733;-67
2022/09/07 11:23:01;;;;;;;4.60;3.10;;;;;;;23.76;39.07;98531.30;104651;1290;22732;-67
2022/09/07 11:25:38;;;;;;;5.30;2.90;;;;;;;23.86;38.45;98529.81;104464;1290;137728;-65
2022/09/07 11:28:24;;;;;;;6.60;3.20;;;;;;;23.91;38.30;98530.82;104722;1289;22821;-67
2022/09/07 11:30:57;;;;;;;5.80;2.80;;;;;;;23.97;38.39;98528.23;104166;1289;137803;-66
2022/09/07 11:33:37;;;;;;;7.70;3.20;;;;;;;24.01;38.24;98527.55;104391;1289;22600;-66
2022/09/07 11:36:11;;;;;;;6.70;3.30;;;;;;;24.08;38.26;98525.13;104319;1288;138120;-66
2022/09/07 11:38:44;;;;;;;4.50;3.00;;;;;;;24.13;37.63;98523.73;104405;1289;25237;-67
2022/09/07 11:41:29;;;;;;;6.70;3.00;;;;;;;24.20;38.30;98518.41;105486;1289;24274;-67
2022/09/07 11:44:23;;;;;;;6.30;2.90;;;;;;;24.33;38.17;98513.73;104800;1289;137776;-67
2022/09/07 11:47:04;;;;;;;4.50;3.70;;;;;;;24.42;38.12;98516.34;104780;1280;24239;-68
2022/09/07 11:49:31;;;;;;;7.70;3.80;;;;;;;24.53;38.41;98514.39;105120;1280;138097;-67
2022/09/07 11:52:17;;;;;;;4.40;3.10;;;;;;;24.67;38.10;98512.33;105224;1280;23922;-67